Time;durP1;ratioP1;P1;durP2;ratioP2;P2;SDS_P1;SDS_P2;PMS_P1;PMS_P2;Temp;Humidity;BMP_temperature;BMP_pressure;BME280_temperature;BME280_humidity;BME280_pressure;Samples;Min_cycle;Max_cycle;Signal;HPM_P1;HPM_P2
2023/10/29 00:01:28;;;;;;;2.22;0.88;;;;;;;;;;4967866;28;94941;-83
2023/10/29 00:03:55;;;;;;;2.25;0.90;;;;;;;;;;4969274;28;93614;-83
2023/10/29 00:06:22;;;;;;;;;;;;;;;;;;4968232;28;92562;-83
2023/10/29 00:08:48;;;;;;;2.42;0.90;;;;;;;;;;4973634;28;104114;-83
2023/10/29 00:11:15;;;;;;;1.98;0.80;;;;;;;;;;4969494;28;92580;-83
2023/10/29 00:13:42;;;;;;;1.98;0.80;;;;;;;;;;4964986;28;93332;-82
2023/10/29 00:16:08;;;;;;;1.48;0.80;;;;;;;;;;4968750;28;92500;-82
2023/10/29 00:18:35;;;;;;;1.40;0.68;;;;;;;;;;4969531;28;92165;-82
2023/10/29 00:21:03;;;;;;;2.22;0.90;;;;;;;;;;4968724;28;92476;-83
2023/10/29 00:23:30;;;;;;;1.38;0.90;;;;;;;;;;4983389;28;96049;-83
2023/10/29 00:25:57;;;;;;;2.47;0.80;;;;;;;;;;4967210;28;94823;-82
2023/10/29 00:28:23;;;;;;;2.60;0.82;;;;;;;;;;4967396;28;94085;-82
2023/10/29 00:30:50;;;;;;;1.42;0.70;;;;;;;;;;4969892;28;95866;-82
2023/10/29 00:33:16;;;;;;;3.05;0.80;;;;;;;;;;4968959;28;92918;-83
2023/10/29 00:35:43;;;;;;;2.95;0.90;;;;;;;;;;4968978;28;92964;-83
2023/10/29 00:38:10;;;;;;;1.75;0.77;;;;;;;;;;4969150;28;92460;-82
2023/10/29 00:40:39;;;;;;;1.48;0.70;;;;;;;;;;4968276;28;94228;-83
2023/10/29 00:43:12;;;;;;;1.10;0.68;;;;;;;;;;4956594;28;92209;-83
2023/10/29 00:45:40;;;;;;;1.50;0.70;;;;;;;;;;4969099;28;92379;-83
2023/10/29 00:48:07;;;;;;;1.77;0.60;;;;;;;;;;4968408;28;93147;-83
2023/10/29 00:50:34;;;;;;;1.33;0.65;;;;;;;;;;4965202;28;102797;-83
2023/10/29 00:53:01;;;;;;;1.45;0.63;;;;;;;;;;4970111;28;92572;-83
2023/10/29 00:55:27;;;;;;;2.38;0.73;;;;;;;;;;4967631;28;93896;-83
2023/10/29 00:57:54;;;;;;;2.10;0.88;;;;;;;;;;4968897;28;92924;-83
2023/10/29 01:00:23;;;;;;;;;;;;;;;;;;4967535;28;95195;-83
2023/10/29 01:02:49;;;;;;;1.80;0.77;;;;;;;;;;4970119;28;93134;-83
2023/10/29 01:05:16;;;;;;;2.30;0.80;;;;;;;;;;4970184;28;92544;-83
2023/10/29 01:07:43;;;;;;;1.27;0.60;;;;;;;;;;4968379;28;95777;-83
2023/10/29 01:10:09;;;;;;;1.42;0.70;;;;;;;;;;4968760;28;93326;-83
2023/10/29 01:12:36;;;;;;;4.22;1.00;;;;;;;;;;4969023;28;92379;-83
2023/10/29 01:15:02;;;;;;;2.20;0.82;;;;;;;;;;4970385;28;94821;-83
2023/10/29 01:17:29;;;;;;;2.03;0.80;;;;;;;;;;4969192;28;92930;-83
2023/10/29 01:19:56;;;;;;;2.15;0.90;;;;;;;;;;4969094;28;93769;-83
2023/10/29 01:22:23;;;;;;;1.75;0.90;;;;;;;;;;4967339;28;96036;-83
2023/10/29 01:24:49;;;;;;;1.23;0.60;;;;;;;;;;4968873;28;92412;-84
2023/10/29 01:27:17;;;;;;;2.10;0.70;;;;;;;;;;4955761;28;92747;-84
2023/10/29 01:29:44;;;;;;;0.93;0.63;;;;;;;;;;4964187;28;94272;-84
2023/10/29 01:32:11;;;;;;;1.35;0.80;;;;;;;;;;4965037;28;91735;-84
2023/10/29 01:34:37;;;;;;;1.45;0.70;;;;;;;;;;4971997;28;92531;-84
2023/10/29 01:37:04;;;;;;;2.17;0.68;;;;;;;;;;4967314;28;92858;-83
2023/10/29 01:39:30;;;;;;;1.23;0.65;;;;;;;;;;4970325;28;95626;-83
2023/10/29 01:41:57;;;;;;;2.30;0.80;;;;;;;;;;4972348;28;93606;-83
2023/10/29 01:44:24;;;;;;;1.92;0.70;;;;;;;;;;4972482;28;92482;-83
2023/10/29 01:46:51;;;;;;;1.52;0.70;;;;;;;;;;4983344;28;92884;-83
2023/10/29 01:49:17;;;;;;;1.27;0.57;;;;;;;;;;4970484;28;93207;-82
2023/10/29 01:51:44;;;;;;;2.60;0.80;;;;;;;;;;4970960;28;92540;-83
2023/10/29 01:54:10;;;;;;;1.45;0.70;;;;;;;;;;4970503;28;94672;-82
2023/10/29 01:56:38;;;;;;;2.08;0.90;;;;;;;;;;4975513;28;92537;-83
2023/10/29 01:59:04;;;;;;;1.40;0.80;;;;;;;;;;4970312;28;94778;-83
2023/10/29 02:01:31;;;;;;;2.33;0.90;;;;;;;;;;4971296;28;93643;-83
2023/10/29 02:03:58;;;;;;;1.42;0.80;;;;;;;;;;4970195;28;94728;-82
2023/10/29 02:06:25;;;;;;;3.05;0.90;;;;;;;;;;4970617;28;95151;-83
2023/10/29 02:08:51;;;;;;;2.97;0.70;;;;;;;;;;4971488;28;94399;-83
2023/10/29 02:11:18;;;;;;;3.60;0.70;;;;;;;;;;4970127;28;92963;-83
2023/10/29 02:13:44;;;;;;;2.40;0.70;;;;;;;;;;4972411;28;92883;-82
2023/10/29 02:16:11;;;;;;;0.85;0.63;;;;;;;;;;4968769;28;95934;-82
2023/10/29 02:18:38;;;;;;;1.88;0.70;;;;;;;;;;4975095;28;92450;-83
2023/10/29 02:21:05;;;;;;;2.38;0.70;;;;;;;;;;4971101;28;95198;-83
2023/10/29 02:23:34;;;;;;;3.40;0.80;;;;;;;;;;4974599;28;93038;-84
2023/10/29 02:26:00;;;;;;;5.50;0.85;;;;;;;;;;4972329;28;93196;-84
2023/10/29 02:28:27;;;;;;;2.40;0.70;;;;;;;;;;4969097;28;95569;-85
2023/10/29 02:30:53;;;;;;;2.88;0.65;;;;;;;;;;4972938;28;92444;-85
2023/10/29 02:33:20;;;;;;;3.67;0.80;;;;;;;;;;4974852;28;92648;-85
2023/10/29 02:35:49;;;;;;;3.20;0.73;;;;;;;;;;4978147;28;95808;-85
2023/10/29 02:38:18;;;;;;;3.15;0.70;;;;;;;;;;4982185;28;92764;-85
2023/10/29 02:40:44;;;;;;;2.40;0.70;;;;;;;;;;4991262;28;92512;-86
2023/10/29 02:43:11;;;;;;;1.70;0.82;;;;;;;;;;4987479;28;92527;-85
2023/10/29 02:45:39;;;;;;;2.40;0.80;;;;;;;;;;4982274;28;91639;-84
2023/10/29 02:48:05;;;;;;;3.63;0.93;;;;;;;;;;4981380;28;93939;-83
2023/10/29 02:50:32;;;;;;;4.97;0.93;;;;;;;;;;4980754;28;92638;-84
2023/10/29 02:52:59;;;;;;;3.25;0.88;;;;;;;;;;4981483;28;95203;-84
2023/10/29 02:55:26;;;;;;;1.67;0.57;;;;;;;;;;4979497;28;93326;-84
2023/10/29 02:57:52;;;;;;;3.05;0.80;;;;;;;;;;4986325;28;92815;-84
2023/10/29 03:00:19;;;;;;;1.95;0.70;;;;;;;;;;4982229;28;92416;-84
2023/10/29 03:02:45;;;;;;;1.15;0.70;;;;;;;;;;4999725;28;93427;-85
2023/10/29 03:05:12;;;;;;;2.45;0.60;;;;;;;;;;4980438;28;92614;-84
2023/10/29 03:07:38;;;;;;;1.23;0.65;;;;;;;;;;4970277;28;93269;-84
2023/10/29 03:10:05;;;;;;;2.45;0.90;;;;;;;;;;4975835;28;91816;-83
2023/10/29 03:12:32;;;;;;;2.20;0.70;;;;;;;;;;4974158;28;92445;-84
2023/10/29 03:15:00;;;;;;;3.15;0.80;;;;;;;;;;4972194;28;93201;-83
2023/10/29 03:17:27;;;;;;;3.22;0.60;;;;;;;;;;4971900;28;94880;-83
2023/10/29 03:19:53;;;;;;;3.15;0.80;;;;;;;;;;4970457;28;95168;-82
2023/10/29 03:22:20;;;;;;;1.25;0.80;;;;;;;;;;4968151;28;93308;-82
2023/10/29 03:24:46;;;;;;;1.73;0.57;;;;;;;;;;4970477;28;92485;-83
2023/10/29 03:27:14;;;;;;;4.80;0.90;;;;;;;;;;4969441;28;93395;-84
2023/10/29 03:29:40;;;;;;;4.40;0.95;;;;;;;;;;4967330;28;92534;-84
2023/10/29 03:32:07;;;;;;;3.30;0.80;;;;;;;;;;4967967;28;94366;-83
2023/10/29 03:34:33;;;;;;;2.80;0.82;;;;;;;;;;4968321;28;93749;-83
2023/10/29 03:37:00;;;;;;;1.35;0.60;;;;;;;;;;4969513;28;93095;-83
2023/10/29 03:39:28;;;;;;;1.77;0.73;;;;;;;;;;4969242;28;92511;-82
2023/10/29 03:41:55;;;;;;;2.03;0.80;;;;;;;;;;4966216;28;96253;-83
2023/10/29 03:44:21;;;;;;;1.45;0.65;;;;;;;;;;4977554;28;92465;-83
2023/10/29 03:46:51;;;;;;;4.68;0.77;;;;;;;;;;4969899;28;93159;-82
2023/10/29 03:49:18;;;;;;;1.48;0.70;;;;;;;;;;4968329;28;92449;-82
2023/10/29 03:51:47;;;;;;;1.92;0.75;;;;;;;;;;4961442;28;93085;-82
2023/10/29 03:54:14;;;;;;;1.95;0.80;;;;;;;;;;4968806;28;93224;-83
2023/10/29 03:56:40;;;;;;;1.30;0.60;;;;;;;;;;4969456;28;92901;-82
2023/10/29 03:59:08;;;;;;;1.23;0.70;;;;;;;;;;4971925;28;92793;-82
2023/10/29 04:01:35;;;;;;;2.17;0.80;;;;;;;;;;4967754;28;94484;-82
2023/10/29 04:04:03;;;;;;;2.20;0.85;;;;;;;;;;4969158;28;92460;-82
2023/10/29 04:06:30;;;;;;;1.85;0.70;;;;;;;;;;4967640;28;94801;-82
2023/10/29 04:08:57;;;;;;;2.15;0.60;;;;;;;;;;4967469;28;92765;-82
2023/10/29 04:11:23;;;;;;;3.03;0.75;;;;;;;;;;4971184;28;92611;-82
2023/10/29 04:13:50;;;;;;;1.63;0.70;;;;;;;;;;4969714;28;92956;-83
2023/10/29 04:16:17;;;;;;;2.47;0.70;;;;;;;;;;4968610;28;92714;-82
2023/10/29 04:18:44;;;;;;;1.55;0.52;;;;;;;;;;4969404;28;92716;-82
2023/10/29 04:21:10;;;;;;;2.35;0.63;;;;;;;;;;4967721;28;93767;-83
2023/10/29 04:23:37;;;;;;;3.85;0.68;;;;;;;;;;4970203;28;91750;-85
2023/10/29 04:26:03;;;;;;;2.63;0.90;;;;;;;;;;4969659;28;92421;-84
2023/10/29 04:28:30;;;;;;;0.88;0.50;;;;;;;;;;4975159;28;93418;-84
2023/10/29 04:30:56;;;;;;;2.33;0.70;;;;;;;;;;4971611;28;94953;-84
2023/10/29 04:33:23;;;;;;;1.88;0.57;;;;;;;;;;4968740;28;92746;-84
2023/10/29 04:35:50;;;;;;;2.67;0.73;;;;;;;;;;4961581;28;92950;-84
2023/10/29 04:38:17;;;;;;;1.23;0.60;;;;;;;;;;4966668;28;95547;-84
2023/10/29 04:40:44;;;;;;;1.75;0.70;;;;;;;;;;4968235;28;94793;-84
2023/10/29 04:43:10;;;;;;;0.98;0.60;;;;;;;;;;4984262;28;92492;-84
2023/10/29 04:45:37;;;;;;;1.08;0.60;;;;;;;;;;4972008;28;93186;-84
2023/10/29 04:48:03;;;;;;;1.80;0.60;;;;;;;;;;4969899;28;92568;-84
2023/10/29 04:50:31;;;;;;;1.92;0.68;;;;;;;;;;4974809;28;92486;-84
2023/10/29 04:52:58;;;;;;;2.67;0.77;;;;;;;;;;4973275;28;93688;-84
2023/10/29 04:55:24;;;;;;;1.40;0.70;;;;;;;;;;4967370;28;94817;-85
2023/10/29 04:57:51;;;;;;;1.15;0.70;;;;;;;;;;4969161;28;94988;-85
2023/10/29 05:00:17;;;;;;;1.73;0.60;;;;;;;;;;4967570;28;93516;-84
2023/10/29 05:02:44;;;;;;;1.70;0.70;;;;;;;;;;4968885;28;94063;-85
2023/10/29 05:05:11;;;;;;;1.42;0.60;;;;;;;;;;4969013;28;92840;-83
2023/10/29 05:07:38;;;;;;;1.10;0.63;;;;;;;;;;4966651;28;94893;-83
2023/10/29 05:10:05;;;;;;;3.38;0.55;;;;;;;;;;4968846;28;93003;-84
2023/10/29 05:12:31;;;;;;;1.67;0.55;;;;;;;;;;4970677;28;92946;-83
2023/10/29 05:14:58;;;;;;;1.73;0.70;;;;;;;;;;4968196;28;93430;-82
2023/10/29 05:17:24;;;;;;;1.52;0.63;;;;;;;;;;4968188;28;92595;-83
2023/10/29 05:19:51;;;;;;;1.95;0.70;;;;;;;;;;4966371;28;95471;-83
2023/10/29 05:22:17;;;;;;;1.65;0.57;;;;;;;;;;4967779;28;92559;-83
2023/10/29 05:24:44;;;;;;;1.45;0.60;;;;;;;;;;4960803;28;92927;-83
2023/10/29 05:27:10;;;;;;;1.63;0.80;;;;;;;;;;4969268;28;92492;-83
2023/10/29 05:29:37;;;;;;;2.38;0.70;;;;;;;;;;4969459;28;92621;-83
2023/10/29 05:32:04;;;;;;;1.55;0.73;;;;;;;;;;4954810;28;92597;-83
2023/10/29 05:34:30;;;;;;;1.77;0.60;;;;;;;;;;4965840;28;92523;-82
2023/10/29 05:36:57;;;;;;;2.63;0.70;;;;;;;;;;4968954;28;92682;-82
2023/10/29 05:39:23;;;;;;;2.80;0.57;;;;;;;;;;4968391;28;93620;-81
2023/10/29 05:41:50;;;;;;;1.92;0.70;;;;;;;;;;4961464;28;92471;-82
2023/10/29 05:44:16;;;;;;;2.53;0.60;;;;;;;;;;4958499;28;95018;-81
2023/10/29 05:46:43;;;;;;;0.85;0.60;;;;;;;;;;4968037;28;93055;-82
2023/10/29 05:49:09;;;;;;;3.50;0.80;;;;;;;;;;4968244;28;92441;-81
2023/10/29 05:51:38;;;;;;;2.42;0.88;;;;;;;;;;4967996;28;92731;-82
2023/10/29 05:54:05;;;;;;;1.98;0.50;;;;;;;;;;4970699;28;93218;-82
2023/10/29 05:56:31;;;;;;;3.88;0.85;;;;;;;;;;4967075;28;92788;-81
2023/10/29 05:58:58;;;;;;;3.22;0.75;;;;;;;;;;4965818;28;92791;-82
2023/10/29 06:01:25;;;;;;;3.88;0.88;;;;;;;;;;4968676;28;92115;-83
2023/10/29 06:03:51;;;;;;;5.25;0.80;;;;;;;;;;4968125;28;92437;-83
2023/10/29 06:06:19;;;;;;;3.80;0.88;;;;;;;;;;4967138;28;94562;-83
2023/10/29 06:08:45;;;;;;;;;;;;;;;;;;4966694;28;94987;-83
2023/10/29 06:11:12;;;;;;;3.45;0.80;;;;;;;;;;4969124;28;117153;-83
2023/10/29 06:13:39;;;;;;;3.90;0.60;;;;;;;;;;4963996;28;94149;-83
2023/10/29 06:16:08;;;;;;;2.45;0.75;;;;;;;;;;4972061;28;93054;-82
2023/10/29 06:18:35;;;;;;;3.17;0.80;;;;;;;;;;4986517;28;97842;-84
2023/10/29 06:21:02;;;;;;;1.75;0.40;;;;;;;;;;4970142;28;92988;-84
2023/10/29 06:23:29;;;;;;;2.28;0.50;;;;;;;;;;4970334;28;92352;-83
2023/10/29 06:25:55;;;;;;;2.95;0.65;;;;;;;;;;4973506;28;92370;-82
2023/10/29 06:28:22;;;;;;;3.45;0.80;;;;;;;;;;4975888;28;92440;-82
2023/10/29 06:30:48;;;;;;;7.00;0.90;;;;;;;;;;4974397;28;95533;-83
2023/10/29 06:33:15;;;;;;;1.00;0.50;;;;;;;;;;4955019;28;97239;-83
2023/10/29 06:35:42;;;;;;;3.08;0.70;;;;;;;;;;4971593;28;92449;-82
2023/10/29 06:38:08;;;;;;;2.10;0.70;;;;;;;;;;4974056;28;92831;-81
2023/10/29 06:40:35;;;;;;;3.17;0.70;;;;;;;;;;4970930;28;92462;-83
2023/10/29 06:43:01;;;;;;;5.88;0.60;;;;;;;;;;4969022;28;95373;-83
2023/10/29 06:45:28;;;;;;;2.80;0.70;;;;;;;;;;4972654;28;94695;-84
2023/10/29 06:47:54;;;;;;;3.05;0.73;;;;;;;;;;4970982;28;92477;-83
2023/10/29 06:50:21;;;;;;;6.50;0.77;;;;;;;;;;4970287;28;92691;-83
2023/10/29 06:52:47;;;;;;;2.25;0.70;;;;;;;;;;4970111;28;93570;-83
2023/10/29 06:55:14;;;;;;;3.28;0.70;;;;;;;;;;4969272;28;92796;-83
2023/10/29 06:57:40;;;;;;;1.52;0.65;;;;;;;;;;4967375;28;95150;-83
2023/10/29 07:00:08;;;;;;;2.78;0.70;;;;;;;;;;4971550;28;94270;-83
2023/10/29 07:02:35;;;;;;;2.80;0.80;;;;;;;;;;4969695;28;97474;-82
2023/10/29 07:05:02;;;;;;;2.15;0.75;;;;;;;;;;4969938;28;92645;-84
2023/10/29 07:07:29;;;;;;;3.10;0.70;;;;;;;;;;4970037;28;93235;-83
2023/10/29 07:09:56;;;;;;;3.88;0.60;;;;;;;;;;4969118;28;92969;-83
2023/10/29 07:12:23;;;;;;;2.47;0.60;;;;;;;;;;4969622;28;93464;-85
2023/10/29 07:14:49;;;;;;;2.17;0.60;;;;;;;;;;4961487;28;91728;-85
2023/10/29 07:17:16;;;;;;;4.40;0.60;;;;;;;;;;4951588;28;93292;-84
2023/10/29 07:19:42;;;;;;;2.70;0.60;;;;;;;;;;4970036;28;93385;-84
2023/10/29 07:22:09;;;;;;;1.70;0.52;;;;;;;;;;4971466;28;94878;-85
2023/10/29 07:24:36;;;;;;;2.90;0.47;;;;;;;;;;4973720;28;93756;-84
2023/10/29 07:27:02;;;;;;;4.95;0.95;;;;;;;;;;4968161;28;92499;-85
2023/10/29 07:29:29;;;;;;;5.78;0.80;;;;;;;;;;4967839;28;94886;-85
2023/10/29 07:31:56;;;;;;;3.67;0.70;;;;;;;;;;4969770;28;93124;-84
2023/10/29 07:34:23;;;;;;;2.97;0.80;;;;;;;;;;4967362;28;92531;-83
2023/10/29 07:36:49;;;;;;;5.18;0.70;;;;;;;;;;4969189;28;94043;-84
2023/10/29 07:39:16;;;;;;;2.67;0.73;;;;;;;;;;4970934;28;92245;-83
2023/10/29 07:41:42;;;;;;;3.78;0.70;;;;;;;;;;4973358;28;92540;-83
2023/10/29 07:44:09;;;;;;;1.83;0.60;;;;;;;;;;4973467;28;94136;-82
2023/10/29 07:46:35;;;;;;;2.78;0.73;;;;;;;;;;4973352;28;95520;-85
2023/10/29 07:49:02;;;;;;;2.03;0.70;;;;;;;;;;4974822;28;94012;-83
2023/10/29 07:51:29;;;;;;;4.03;0.80;;;;;;;;;;4968721;28;94630;-84
2023/10/29 07:53:56;;;;;;;2.15;0.70;;;;;;;;;;4967345;28;93107;-84
2023/10/29 07:56:26;;;;;;;2.17;0.60;;;;;;;;;;4967239;28;95787;-84
2023/10/29 07:58:53;;;;;;;2.53;0.65;;;;;;;;;;4965013;28;92877;-84
2023/10/29 08:01:19;;;;;;;2.55;0.70;;;;;;;;;;4959408;28;93158;-85
2023/10/29 08:03:46;;;;;;;3.60;0.93;;;;;;;;;;4966980;28;93786;-85
2023/10/29 08:06:13;;;;;;;1.85;0.70;;;;;;;;;;4967709;28;92670;-84
2023/10/29 08:08:39;;;;;;;1.48;0.60;;;;;;;;;;4969845;28;93232;-86
2023/10/29 08:11:06;;;;;;;3.42;0.70;;;;;;;;;;4966308;28;95935;-82
2023/10/29 08:13:33;;;;;;;3.65;0.70;;;;;;;;;;4969908;28;92453;-85
2023/10/29 08:16:01;;;;;;;2.95;0.90;;;;;;;;;;4969555;28;94240;-84
2023/10/29 08:18:28;;;;;;;4.38;0.90;;;;;;;;;;4960394;28;93762;-85
2023/10/29 08:20:54;;;;;;;3.40;0.75;;;;;;;;;;4967851;28;92468;-85
2023/10/29 08:23:21;;;;;;;4.15;0.90;;;;;;;;;;4969238;28;93452;-86
2023/10/29 08:25:47;;;;;;;2.03;0.82;;;;;;;;;;4973567;28;93175;-86
2023/10/29 08:28:14;;;;;;;3.67;0.85;;;;;;;;;;4987919;28;95351;-86
2023/10/29 08:30:40;;;;;;;2.58;0.70;;;;;;;;;;4968301;28;93745;-85
2023/10/29 08:33:07;;;;;;;2.38;0.80;;;;;;;;;;4968912;28;92587;-84
2023/10/29 08:35:33;;;;;;;4.05;0.85;;;;;;;;;;4965586;28;94850;-84
2023/10/29 08:38:00;;;;;;;3.40;0.95;;;;;;;;;;4960323;28;93363;-83
2023/10/29 08:40:27;;;;;;;4.43;1.00;;;;;;;;;;4968264;28;92536;-84
2023/10/29 08:42:53;;;;;;;2.88;0.80;;;;;;;;;;4969076;28;94340;-84
2023/10/29 08:45:22;;;;;;;3.88;0.93;;;;;;;;;;4969291;28;93254;-83
2023/10/29 08:48:06;;;;;;;2.67;0.90;;;;;;;;;;4959337;28;92566;-85
2023/10/29 08:50:33;;;;;;;5.20;1.00;;;;;;;;;;4970390;28;97891;-84
2023/10/29 08:53:00;;;;;;;2.92;0.93;;;;;;;;;;4984918;28;91815;-84
2023/10/29 08:55:26;;;;;;;2.80;0.80;;;;;;;;;;4975164;28;92751;-84
2023/10/29 08:57:53;;;;;;;2.35;0.90;;;;;;;;;;4968398;28;93442;-84
2023/10/29 09:00:19;;;;;;;4.03;0.90;;;;;;;;;;4966823;28;94878;-84
2023/10/29 09:02:47;;;;;;;5.40;0.90;;;;;;;;;;4962886;28;95226;-83
2023/10/29 09:05:15;;;;;;;3.47;0.82;;;;;;;;;;4965195;28;92934;-84
2023/10/29 09:07:41;;;;;;;4.80;0.90;;;;;;;;;;4968565;28;92874;-84
2023/10/29 09:10:08;;;;;;;4.15;1.00;;;;;;;;;;4969536;28;94250;-80
2023/10/29 09:12:35;;;;;;;6.25;1.10;;;;;;;;;;4968506;28;93475;-83
2023/10/29 09:15:01;;;;;;;5.80;1.20;;;;;;;;;;4968888;28;93636;-83
2023/10/29 09:17:28;;;;;;;4.38;1.10;;;;;;;;;;4967385;28;93755;-85
2023/10/29 09:19:55;;;;;;;5.95;1.17;;;;;;;;;;4967758;28;92992;-85
2023/10/29 09:22:22;;;;;;;5.13;1.10;;;;;;;;;;4967427;28;94067;-84
2023/10/29 09:24:50;;;;;;;7.22;1.60;;;;;;;;;;4971773;28;95445;-82
2023/10/29 09:30:22;;;;;;;6.97;1.20;;;;;;;;;;4969424;28;93224;-82
2023/10/29 09:32:49;;;;;;;5.97;1.13;;;;;;;;;;4971860;28;93258;-82
2023/10/29 09:35:15;;;;;;;7.60;1.30;;;;;;;;;;4968558;28;93189;-82
2023/10/29 09:37:43;;;;;;;7.53;1.20;;;;;;;;;;4954547;28;93218;-83
2023/10/29 09:40:13;;;;;;;5.53;0.95;;;;;;;;;;4967869;28;93072;-82
2023/10/29 09:42:43;;;;;;;4.53;1.10;;;;;;;;;;4968914;28;92794;-82
2023/10/29 09:45:11;;;;;;;3.42;0.90;;;;;;;;;;4968338;28;93163;-83
2023/10/29 09:47:38;;;;;;;5.72;1.27;;;;;;;;;;4969130;28;92540;-82
2023/10/29 09:50:05;;;;;;;;;;;;;;;;;;4968391;28;94950;-83
2023/10/29 09:52:32;;;;;;;5.00;0.95;;;;;;;;;;4971439;28;115774;-82
2023/10/29 09:55:00;;;;;;;3.08;1.00;;;;;;;;;;4968158;28;93372;-83
2023/10/29 09:57:27;;;;;;;4.13;1.10;;;;;;;;;;4968029;28;92376;-82
2023/10/29 09:59:53;;;;;;;4.60;1.15;;;;;;;;;;4970920;28;92812;-82
2023/10/29 10:02:20;;;;;;;5.38;1.30;;;;;;;;;;4971502;28;92949;-81
2023/10/29 10:04:47;;;;;;;4.68;1.10;;;;;;;;;;4967224;28;92469;-82
2023/10/29 10:07:15;;;;;;;5.97;1.20;;;;;;;;;;4975155;28;91730;-81
2023/10/29 10:09:52;;;;;;;2.95;0.90;;;;;;;;;;4973531;28;92649;-79
2023/10/29 10:12:19;;;;;;;5.22;1.02;;;;;;;;;;4969200;28;93004;-80
2023/10/29 10:14:46;;;;;;;4.50;0.85;;;;;;;;;;4972947;28;95378;-80
2023/10/29 10:17:14;;;;;;;3.67;0.93;;;;;;;;;;4972415;28;93207;-80
2023/10/29 10:19:40;;;;;;;4.47;0.80;;;;;;;;;;4961350;28;92845;-81
2023/10/29 10:22:07;;;;;;;4.40;1.05;;;;;;;;;;4968318;28;93266;-80
2023/10/29 10:24:43;;;;;;;4.20;0.98;;;;;;;;;;4973265;28;93838;-81
2023/10/29 10:27:13;;;;;;;6.47;1.10;;;;;;;;;;4969303;28;92865;-80
2023/10/29 10:29:39;;;;;;;5.40;1.20;;;;;;;;;;4961267;28;93255;-80
2023/10/29 10:32:06;;;;;;;3.90;0.90;;;;;;;;;;4967794;28;92254;-81
2023/10/29 10:34:39;;;;;;;4.60;1.00;;;;;;;;;;4969707;28;92750;-82
2023/10/29 10:37:06;;;;;;;3.08;0.75;;;;;;;;;;4971174;28;92896;-81
2023/10/29 10:39:33;;;;;;;5.55;1.20;;;;;;;;;;4968015;28;95264;-81
2023/10/29 10:42:00;;;;;;;4.28;0.95;;;;;;;;;;4973987;28;95287;-80
2023/10/29 10:44:30;;;;;;;5.65;1.15;;;;;;;;;;4969980;28;93064;-81
2023/10/29 10:47:02;;;;;;;2.20;0.90;;;;;;;;;;4969715;28;92646;-82
2023/10/29 10:49:31;;;;;;;4.18;0.90;;;;;;;;;;4970707;28;93023;-82
2023/10/29 10:52:01;;;;;;;4.35;1.02;;;;;;;;;;4968545;28;93588;-82
2023/10/29 10:54:29;;;;;;;5.32;1.05;;;;;;;;;;4968932;28;92494;-81
2023/10/29 10:56:56;;;;;;;3.97;0.90;;;;;;;;;;4971072;28;93573;-82
2023/10/29 10:59:23;;;;;;;6.32;1.10;;;;;;;;;;4973075;28;92404;-82
2023/10/29 11:01:50;;;;;;;6.00;1.20;;;;;;;;;;4962619;28;93058;-81
2023/10/29 11:04:17;;;;;;;6.85;1.30;;;;;;;;;;4964924;28;98135;-81
2023/10/29 11:06:45;;;;;;;4.82;1.00;;;;;;;;;;4970650;28;93087;-81
2023/10/29 11:09:12;;;;;;;5.47;1.20;;;;;;;;;;4970328;28;93698;-81
2023/10/29 11:11:51;;;;;;;2.97;0.85;;;;;;;;;;4972011;28;93645;-80
2023/10/29 11:14:18;;;;;;;6.75;1.27;;;;;;;;;;4951749;28;93901;-80
2023/10/29 11:16:48;;;;;;;6.07;1.30;;;;;;;;;;4950681;28;92933;-80
2023/10/29 11:19:37;;;;;;;6.15;1.10;;;;;;;;;;4948758;28;93160;-80
2023/10/29 11:22:12;;;;;;;6.82;1.20;;;;;;;;;;4954440;28;91910;-80
2023/10/29 11:24:39;;;;;;;4.45;1.13;;;;;;;;;;4950151;28;97552;-80
2023/10/29 11:27:25;;;;;;;6.07;1.20;;;;;;;;;;4950369;28;92506;-80
2023/10/29 11:29:51;;;;;;;6.20;1.10;;;;;;;;;;4949043;28;94795;-80
2023/10/29 11:32:24;;;;;;;3.90;0.95;;;;;;;;;;4949256;28;93128;-79
2023/10/29 11:35:10;;;;;;;7.80;1.40;;;;;;;;;;4950199;28;92441;-80
2023/10/29 11:37:40;;;;;;;5.75;1.00;;;;;;;;;;4949704;28;92393;-81
2023/10/29 11:40:24;;;;;;;6.07;1.20;;;;;;;;;;4948282;28;96304;-80
2023/10/29 11:42:52;;;;;;;5.00;1.25;;;;;;;;;;4972108;28;94695;-80
2023/10/29 11:45:27;;;;;;;4.38;1.10;;;;;;;;;;4972446;28;93122;-80
2023/10/29 11:48:09;;;;;;;6.15;1.20;;;;;;;;;;4970598;28;91675;-80
2023/10/29 11:50:37;;;;;;;6.72;1.10;;;;;;;;;;4969184;28;96941;-79
2023/10/29 11:53:03;;;;;;;4.65;1.25;;;;;;;;;;4969688;28;92688;-80
2023/10/29 11:55:41;;;;;;;5.85;1.30;;;;;;;;;;4965928;28;94915;-81
2023/10/29 11:58:08;;;;;;;5.28;1.20;;;;;;;;;;4968953;28;95455;-81
2023/10/29 12:00:40;;;;;;;6.10;1.23;;;;;;;;;;4951114;28;100263;-80
2023/10/29 12:03:11;;;;;;;5.88;1.35;;;;;;;;;;4967156;28;92543;-81
2023/10/29 12:05:38;;;;;;;5.35;1.45;;;;;;;;;;4965901;28;93823;-80
2023/10/29 12:08:05;;;;;;;5.18;1.30;;;;;;;;;;4967931;28;93185;-80
2023/10/29 12:10:32;;;;;;;6.03;1.20;;;;;;;;;;4971582;28;92894;-79
2023/10/29 12:12:58;;;;;;;6.63;1.35;;;;;;;;;;4971837;28;92522;-80
2023/10/29 12:15:25;;;;;;;4.97;1.15;;;;;;;;;;4969339;28;92477;-80
2023/10/29 12:17:53;;;;;;;6.25;1.73;;;;;;;;;;4969079;28;93192;-80
2023/10/29 12:20:23;;;;;;;5.55;1.50;;;;;;;;;;4967310;28;95539;-80
2023/10/29 12:22:54;;;;;;;6.13;1.30;;;;;;;;;;4957253;28;92516;-80
2023/10/29 12:25:21;;;;;;;4.82;1.35;;;;;;;;;;4969266;28;92775;-80
2023/10/29 12:27:49;;;;;;;4.03;1.38;;;;;;;;;;4972201;28;94130;-80
2023/10/29 12:30:35;;;;;;;6.60;1.42;;;;;;;;;;4963833;28;92798;-79
2023/10/29 12:33:01;;;;;;;;;;;;;;;;;;4974428;28;92452;-79
2023/10/29 12:35:37;;;;;;;9.38;1.65;;;;;;;;;;4972328;28;93116;-81
2023/10/29 12:38:04;;;;;;;3.42;1.30;;;;;;;;;;4984665;28;96425;-80
2023/10/29 12:40:30;;;;;;;5.60;1.48;;;;;;;;;;4967031;28;93041;-80
2023/10/29 12:42:57;;;;;;;5.05;1.40;;;;;;;;;;4969909;28;93003;-80
2023/10/29 12:45:24;;;;;;;5.25;1.25;;;;;;;;;;4967967;28;94984;-80
2023/10/29 12:48:09;;;;;;;4.30;1.27;;;;;;;;;;4968543;28;93761;-79
2023/10/29 12:50:50;;;;;;;5.68;1.42;;;;;;;;;;4971461;28;92812;-79
2023/10/29 12:53:23;;;;;;;4.90;1.20;;;;;;;;;;4968196;28;93895;-80
2023/10/29 12:55:50;;;;;;;5.30;1.40;;;;;;;;;;4965621;28;92491;-79
2023/10/29 12:58:17;;;;;;;6.53;1.42;;;;;;;;;;4972956;28;92874;-80
2023/10/29 13:00:44;;;;;;;5.07;1.33;;;;;;;;;;4969099;28;93024;-80
2023/10/29 13:03:10;;;;;;;6.65;1.70;;;;;;;;;;4969299;28;92107;-80
2023/10/29 13:05:40;;;;;;;5.80;1.40;;;;;;;;;;4968193;28;93558;-80
2023/10/29 13:08:06;;;;;;;6.25;1.20;;;;;;;;;;4968538;28;94081;-80
2023/10/29 13:10:33;;;;;;;6.32;1.40;;;;;;;;;;4966899;28;94953;-80
2023/10/29 13:13:00;;;;;;;8.25;1.33;;;;;;;;;;4976837;28;95759;-79
2023/10/29 13:15:27;;;;;;;5.68;1.30;;;;;;;;;;4969656;28;92777;-80
2023/10/29 13:17:54;;;;;;;10.07;1.45;;;;;;;;;;4969110;28;92800;-80
2023/10/29 13:20:23;;;;;;;6.00;1.70;;;;;;;;;;4967859;28;93829;-80
2023/10/29 13:22:49;;;;;;;5.53;1.52;;;;;;;;;;4966484;28;92717;-80
2023/10/29 13:25:16;;;;;;;6.68;1.48;;;;;;;;;;4982874;28;94723;-81
2023/10/29 13:27:43;;;;;;;6.28;1.20;;;;;;;;;;4969393;28;93345;-80
2023/10/29 13:30:09;;;;;;;5.97;1.48;;;;;;;;;;4959085;28;92428;-80
2023/10/29 13:32:36;;;;;;;5.57;1.30;;;;;;;;;;4975162;28;95789;-80
2023/10/29 13:35:03;;;;;;;6.15;1.40;;;;;;;;;;4952763;28;95694;-80
2023/10/29 13:37:30;;;;;;;6.03;1.20;;;;;;;;;;4970971;28;95097;-80
2023/10/29 13:39:58;;;;;;;3.90;1.13;;;;;;;;;;4971233;28;93198;-80
2023/10/29 13:42:24;;;;;;;5.97;1.30;;;;;;;;;;4970836;28;92422;-80
2023/10/29 13:44:51;;;;;;;6.40;1.35;;;;;;;;;;4971609;28;93552;-80
2023/10/29 13:47:21;;;;;;;5.82;1.50;;;;;;;;;;4971268;28;93086;-80
2023/10/29 13:49:47;;;;;;;5.20;1.50;;;;;;;;;;4972206;28;92539;-80
2023/10/29 13:52:14;;;;;;;6.50;1.40;;;;;;;;;;4972152;28;92905;-79
2023/10/29 13:54:42;;;;;;;5.95;1.30;;;;;;;;;;4971683;28;93052;-79
2023/10/29 13:57:09;;;;;;;7.03;1.50;;;;;;;;;;4974449;28;92748;-78
2023/10/29 13:59:35;;;;;;;5.68;1.52;;;;;;;;;;4969765;28;95589;-79
2023/10/29 14:02:02;;;;;;;6.25;1.33;;;;;;;;;;4971210;28;92500;-79
2023/10/29 14:04:29;;;;;;;12.27;1.85;;;;;;;;;;4971210;28;93922;-80
2023/10/29 14:06:56;;;;;;;8.82;1.60;;;;;;;;;;4970011;28;94538;-80
2023/10/29 14:09:24;;;;;;;8.63;1.50;;;;;;;;;;4971728;28;92503;-81
2023/10/29 14:11:52;;;;;;;6.25;1.48;;;;;;;;;;4971739;28;93658;-80
2023/10/29 14:14:20;;;;;;;5.95;1.20;;;;;;;;;;4970284;28;94086;-81
2023/10/29 14:16:47;;;;;;;8.98;1.42;;;;;;;;;;4975218;28;91835;-81
2023/10/29 14:19:13;;;;;;;6.00;1.27;;;;;;;;;;4972013;28;93145;-81
2023/10/29 14:21:40;;;;;;;6.95;1.50;;;;;;;;;;4970211;28;92515;-80
2023/10/29 14:24:07;;;;;;;7.28;1.50;;;;;;;;;;4970273;28;94823;-81
2023/10/29 14:26:34;;;;;;;;;;;;;;;;;;4993335;28;100286;-80
2023/10/29 14:29:00;;;;;;;6.72;1.70;;;;;;;;;;4976477;28;112335;-80
2023/10/29 14:31:26;;;;;;;6.57;1.65;;;;;;;;;;4970808;28;92647;-80
2023/10/29 14:33:53;;;;;;;6.75;1.38;;;;;;;;;;4972165;28;93182;-79
2023/10/29 14:36:19;;;;;;;8.30;1.50;;;;;;;;;;4970654;28;92462;-82
2023/10/29 14:38:46;;;;;;;6.60;1.40;;;;;;;;;;4973845;28;93225;-80
2023/10/29 14:41:19;;;;;;;6.53;1.42;;;;;;;;;;4972046;28;91910;-82
2023/10/29 14:43:46;;;;;;;4.85;1.20;;;;;;;;;;4971108;28;93110;-81
2023/10/29 14:46:12;;;;;;;6.07;1.30;;;;;;;;;;4967989;28;94071;-81
2023/10/29 14:48:39;;;;;;;6.38;1.42;;;;;;;;;;4970221;28;94818;-82
2023/10/29 14:51:06;;;;;;;4.63;1.40;;;;;;;;;;4971805;28;95956;-82